Time;durP1;ratioP1;P1;durP2;ratioP2;P2;SDS_P1;SDS_P2;PMS_P1;PMS_P2;Temp;Humidity;BMP_temperature;BMP_pressure;BME280_temperature;BME280_humidity;BME280_pressure;Samples;Min_cycle;Max_cycle;Signal;HPM_P1;HPM_P2
2022/02/17 00:02:16;;;;;;;70.30;34.40;;;;;;;1.69;90.11;98668.20;109269;1274;138076;-59
2022/02/17 00:04:45;;;;;;;77.50;38.50;;;;;;;1.71;90.10;98665.38;109241;1274;220669;-58
2022/02/17 00:08:09;;;;;;;73.70;39.90;;;;;;;1.74;90.20;98669.76;101679;1309;545982;-58
2022/02/17 00:10:37;;;;;;;67.50;37.00;;;;;;;1.70;90.26;98669.02;103867;1287;22592;-59
2022/02/17 00:13:05;;;;;;;71.20;37.70;;;;;;;1.70;90.19;98665.39;103968;1287;24440;-58
2022/02/17 00:15:34;;;;;;;75.90;38.70;;;;;;;1.67;90.13;98655.73;108161;1287;137231;-59
2022/02/17 00:18:10;;;;;;;68.60;36.50;;;;;;;1.66;90.16;98655.98;108337;1287;22529;-59
2022/02/17 00:20:40;;;;;;;71.90;36.00;;;;;;;1.67;90.13;98644.13;108156;1284;142576;-59
2022/02/17 00:23:09;;;;;;;71.80;34.90;;;;;;;1.64;90.35;98641.73;108580;1283;23346;-59
2022/02/17 00:25:37;;;;;;;63.20;35.80;;;;;;;1.65;90.26;98642.98;108560;1284;22566;-60
2022/02/17 00:28:05;;;;;;;62.50;34.80;;;;;;;1.64;90.33;98637.02;108502;1284;137736;-59
2022/02/17 00:30:34;;;;;;;64.50;35.80;;;;;;;1.64;90.51;98632.21;108597;1283;22461;-59
2022/02/17 00:33:02;;;;;;;63.00;34.70;;;;;;;1.64;90.39;98630.77;108427;1283;137554;-59
2022/02/17 00:35:31;;;;;;;61.70;33.50;;;;;;;1.64;90.54;98627.59;108624;1284;22244;-59
2022/02/17 00:38:00;;;;;;;60.50;34.10;;;;;;;1.64;90.69;98617.46;108579;1284;23456;-59
2022/02/17 00:40:29;;;;;;;59.20;34.40;;;;;;;1.64;90.66;98607.52;108472;1284;138715;-59
2022/02/17 00:42:57;;;;;;;57.50;32.40;;;;;;;1.64;90.77;98603.14;108324;1284;23267;-59
2022/02/17 00:45:25;;;;;;;63.00;36.20;;;;;;;1.65;90.88;98592.05;108230;1284;137859;-58
2022/02/17 00:47:55;;;;;;;55.80;31.90;;;;;;;1.66;91.10;98587.92;108384;1284;22459;-59
2022/02/17 00:50:23;;;;;;;59.40;35.70;;;;;;;1.66;91.06;98589.81;108223;1284;137769;-59
2022/02/17 00:52:53;;;;;;;58.10;33.30;;;;;;;1.67;90.97;98586.95;108415;1284;22517;-59
2022/02/17 00:55:22;;;;;;;62.20;34.70;;;;;;;1.69;91.19;98584.22;108510;1284;23124;-59
2022/02/17 00:57:50;;;;;;;52.80;33.40;;;;;;;1.71;91.10;98583.33;108463;1283;137872;-59
2022/02/17 01:00:20;;;;;;;60.40;34.70;;;;;;;1.75;91.27;98573.14;108299;1284;22489;-59
2022/02/17 01:02:48;;;;;;;58.00;33.90;;;;;;;1.77;91.34;98564.70;108228;1284;137949;-59
2022/02/17 01:05:16;;;;;;;63.70;35.50;;;;;;;1.79;91.24;98553.02;108574;1284;22455;-59
2022/02/17 01:07:47;;;;;;;62.50;33.80;;;;;;;1.81;91.19;98544.70;108339;1284;22481;-59
2022/02/17 01:10:15;;;;;;;58.80;34.30;;;;;;;1.83;91.46;98534.23;108483;1284;137972;-59
2022/02/17 01:12:43;;;;;;;61.80;34.30;;;;;;;1.82;91.28;98525.68;108592;1284;23488;-59
2022/02/17 01:23:14;;;;;;;55.60;32.90;;;;;;;1.88;91.37;98516.16;108458;1284;22496;-59
2022/02/17 01:25:43;;;;;;;57.60;32.30;;;;;;;1.89;91.44;98512.85;108165;1286;23331;-59
2022/02/17 02:25:48;;;;;;;58.30;30.20;;;;;;;1.78;91.93;98383.19;109419;1274;23693;-59
2022/02/17 02:28:23;;;;;;;54.80;32.10;;;;;;;1.79;91.98;98381.00;109321;1274;138064;-59
2022/02/17 02:30:52;;;;;;;52.30;31.70;;;;;;;1.79;92.05;98371.28;109215;1274;22551;-59
2022/02/17 02:33:20;;;;;;;55.50;33.10;;;;;;;1.78;91.97;98365.09;109430;1274;22481;-59
2022/02/17 02:35:50;;;;;;;48.60;31.20;;;;;;;1.80;91.95;98360.67;109208;1274;139506;-59
2022/02/17 02:38:20;;;;;;;52.90;30.60;;;;;;;1.82;92.00;98360.19;109302;1274;23241;-59
2022/02/17 02:40:50;;;;;;;51.70;31.70;;;;;;;1.82;92.02;98368.73;109142;1274;139052;-54
2022/02/17 02:43:36;;;;;;;55.40;32.00;;;;;;;1.83;92.08;98364.09;109383;1274;22895;-54
2022/02/17 02:46:06;;;;;;;50.60;31.80;;;;;;;1.84;92.17;98358.05;109303;1274;22238;-54
2022/02/17 02:48:34;;;;;;;53.20;31.50;;;;;;;1.86;92.22;98355.58;109317;1273;137556;-53
2022/02/17 02:51:05;;;;;;;51.80;32.10;;;;;;;1.88;92.27;98341.74;109360;1272;22523;-54
2022/02/17 02:53:34;;;;;;;54.00;31.10;;;;;;;1.89;92.26;98331.46;109202;1274;138700;-53
2022/02/17 02:56:02;;;;;;;54.90;32.50;;;;;;;1.92;92.45;98322.41;109406;1274;22539;-53
2022/02/17 02:58:34;;;;;;;57.30;33.00;;;;;;;1.93;92.55;98318.84;109261;1274;138942;-53
2022/02/17 03:01:02;;;;;;;56.50;32.10;;;;;;;1.96;92.53;98322.89;109311;1274;22457;-54
2022/02/17 03:03:30;;;;;;;54.20;32.20;;;;;;;1.99;92.68;98318.25;109332;1274;22647;-56
2022/02/17 03:05:58;;;;;;;57.30;33.60;;;;;;;2.02;92.81;98306.86;109319;1274;138239;-54
2022/02/17 03:08:26;;;;;;;56.80;33.40;;;;;;;2.06;92.66;98303.28;109290;1274;22436;-54
2022/02/17 03:11:08;;;;;;;57.10;32.20;;;;;;;2.08;92.83;98297.23;109277;1274;138449;-53
2022/02/17 03:13:39;;;;;;;58.70;32.80;;;;;;;2.11;92.95;98288.91;109524;1273;22412;-54
2022/02/17 03:16:07;;;;;;;54.30;32.50;;;;;;;2.14;92.80;98292.16;109346;1274;23700;-53
2022/02/17 03:18:36;;;;;;;53.20;31.00;;;;;;;2.15;92.79;98295.86;109178;1274;137558;-54
2022/02/17 03:21:06;;;;;;;56.40;32.20;;;;;;;2.20;92.80;98300.65;109449;1272;22404;-53
2022/02/17 03:23:34;;;;;;;53.60;32.70;;;;;;;2.22;92.97;98290.23;109188;1274;138133;-54
2022/02/17 03:26:21;;;;;;;59.80;33.60;;;;;;;2.25;92.95;98281.06;109281;1274;22538;-53
2022/02/17 03:28:55;;;;;;;59.70;33.80;;;;;;;2.26;93.03;98282.11;109287;1274;139294;-53
2022/02/17 03:31:24;;;;;;;58.80;33.90;;;;;;;2.26;92.93;98280.66;109309;1274;23258;-54
2022/02/17 03:33:58;;;;;;;54.00;32.30;;;;;;;2.29;92.88;98277.50;109393;1273;22470;-55
2022/02/17 03:36:26;;;;;;;52.00;32.10;;;;;;;2.33;92.86;98272.69;109244;1274;139311;-53
2022/02/17 03:38:59;;;;;;;61.10;33.60;;;;;;;2.34;92.97;98274.16;109421;1273;22489;-53
2022/02/17 03:41:59;;;;;;;63.30;33.80;;;;;;;2.37;93.03;98269.87;109191;1274;138892;-54
2022/02/17 03:44:30;;;;;;;58.10;33.30;;;;;;;2.39;92.99;98263.05;109353;1274;22548;-54
2022/02/17 03:47:24;;;;;;;60.20;33.50;;;;;;;2.43;92.85;98261.08;109269;1273;139338;-53
2022/02/17 03:49:58;;;;;;;60.50;34.90;;;;;;;2.44;93.09;98266.23;109321;1274;22457;-53
2022/02/17 03:52:28;;;;;;;60.50;34.40;;;;;;;2.45;92.89;98265.05;109254;1274;138193;-53
2022/02/17 03:55:10;;;;;;;59.70;34.30;;;;;;;2.46;92.88;98257.31;109348;1274;23401;-53
2022/02/17 03:57:41;;;;;;;65.20;35.60;;;;;;;2.46;92.76;98256.77;109387;1274;22477;-53
2022/02/17 04:00:13;;;;;;;59.30;35.40;;;;;;;2.46;92.79;98260.29;109233;1274;138041;-53
2022/02/17 04:02:44;;;;;;;65.60;35.30;;;;;;;2.47;92.77;98251.38;109455;1273;22216;-53
2022/02/17 04:05:14;;;;;;;64.20;37.80;;;;;;;2.48;92.86;98240.52;109241;1273;139339;-54
2022/02/17 04:07:42;;;;;;;58.00;34.70;;;;;;;2.48;92.70;98228.07;109428;1274;22468;-53
2022/02/17 04:10:28;;;;;;;56.80;33.80;;;;;;;2.49;92.67;98226.80;109241;1273;140081;-53
2022/02/17 04:12:59;;;;;;;65.90;36.60;;;;;;;2.53;92.69;98223.31;109313;1274;23550;-53
2022/02/17 04:15:44;;;;;;;68.30;38.80;;;;;;;2.55;92.67;98220.09;109275;1274;24081;-54
2022/02/17 04:18:23;;;;;;;57.80;35.30;;;;;;;2.56;92.55;98226.52;109288;1273;139504;-53
2022/02/17 04:21:10;;;;;;;67.30;38.00;;;;;;;2.57;92.46;98226.75;109457;1274;22592;-54
2022/02/17 04:24:11;;;;;;;65.10;36.80;;;;;;;2.57;92.50;98218.10;108989;1274;138156;-55
2022/02/17 04:26:51;;;;;;;68.90;37.60;;;;;;;2.58;92.33;98207.02;109356;1272;24070;-53
2022/02/17 04:29:29;;;;;;;61.30;37.30;;;;;;;2.57;92.60;98197.55;109229;1274;138488;-54
2022/02/17 04:31:59;;;;;;;64.70;36.50;;;;;;;2.58;92.40;98193.38;109316;1274;22468;-53
2022/02/17 04:34:27;;;;;;;65.10;36.10;;;;;;;2.58;92.38;98193.77;109224;1273;139456;-53
2022/02/17 04:37:05;;;;;;;65.60;36.90;;;;;;;2.59;92.37;98182.27;109387;1272;22484;-53
2022/02/17 04:39:33;;;;;;;63.10;36.40;;;;;;;2.61;92.33;98179.11;109422;1274;22422;-59
2022/02/17 04:42:20;;;;;;;66.00;37.20;;;;;;;2.60;92.31;98170.13;109220;1274;138729;-59
2022/02/17 04:44:57;;;;;;;66.00;36.30;;;;;;;2.61;92.19;98168.52;109408;1274;22540;-59
2022/02/17 04:47:25;;;;;;;63.60;36.30;;;;;;;2.62;92.15;98168.64;109236;1274;139370;-59
2022/02/17 04:49:53;;;;;;;59.10;34.90;;;;;;;2.62;92.18;98161.27;109439;1273;22411;-59
2022/02/17 04:52:21;;;;;;;59.00;35.60;;;;;;;2.62;92.18;98157.63;109133;1274;140024;-59
2022/02/17 04:54:51;;;;;;;58.50;35.60;;;;;;;2.63;92.09;98155.50;109394;1274;22449;-59
2022/02/17 04:57:20;;;;;;;55.40;35.20;;;;;;;2.63;91.98;98151.45;109318;1274;22537;-59
2022/02/17 04:59:49;;;;;;;59.80;35.80;;;;;;;2.64;91.97;98151.64;109306;1274;140021;-59
2022/02/17 05:02:19;;;;;;;65.50;37.90;;;;;;;2.64;91.82;98145.19;109329;1274;22450;-59
2022/02/17 05:04:56;;;;;;;66.00;37.10;;;;;;;2.63;91.94;98136.77;109212;1274;140157;-59
2022/02/17 05:07:31;;;;;;;62.40;35.60;;;;;;;2.62;91.72;98141.88;109297;1274;23466;-59
2022/02/17 05:09:59;;;;;;;63.50;36.50;;;;;;;2.62;91.73;98139.27;109413;1274;22441;-59
2022/02/17 05:12:43;;;;;;;66.10;39.60;;;;;;;2.61;91.66;98135.23;109175;1274;139810;-59
2022/02/17 05:15:11;;;;;;;64.70;38.20;;;;;;;2.59;91.62;98134.69;109379;1273;22525;-59
2022/02/17 05:17:40;;;;;;;65.90;37.90;;;;;;;2.59;91.62;98131.52;109092;1276;138467;-59
2022/02/17 05:20:14;;;;;;;63.30;37.80;;;;;;;2.59;91.60;98125.11;109384;1274;22501;-59
2022/02/17 05:23:01;;;;;;;60.50;36.70;;;;;;;2.58;91.63;98116.22;109288;1274;138166;-59
2022/02/17 05:25:54;;;;;;;64.80;37.80;;;;;;;2.58;91.62;98102.61;109422;1274;22434;-59
2022/02/17 05:28:36;;;;;;;62.00;37.00;;;;;;;2.61;91.54;98102.22;109223;1274;140803;-59
2022/02/17 05:31:23;;;;;;;69.60;38.20;;;;;;;2.62;91.55;98094.11;109269;1275;22458;-59
2022/02/17 05:33:59;;;;;;;64.90;38.90;;;;;;;2.62;91.50;98096.47;109131;1274;23889;-59
2022/02/17 05:36:47;;;;;;;67.70;37.50;;;;;;;2.60;91.49;98083.77;109092;1274;139044;-59
2022/02/17 05:39:44;;;;;;;65.70;36.90;;;;;;;2.59;91.44;98077.09;109169;1276;22238;-59
2022/02/17 05:42:21;;;;;;;63.60;38.70;;;;;;;2.59;91.40;98065.48;109231;1274;139007;-59
2022/02/17 05:44:49;;;;;;;70.40;40.00;;;;;;;2.58;91.35;98062.57;109420;1274;22397;-59
2022/02/17 05:47:17;;;;;;;67.70;37.90;;;;;;;2.57;91.37;98062.60;109278;1274;139371;-59
2022/02/17 05:49:45;;;;;;;65.10;37.40;;;;;;;2.56;91.34;98061.83;109400;1274;22452;-59
2022/02/17 05:52:13;;;;;;;66.80;37.30;;;;;;;2.57;91.30;98061.98;109360;1274;22487;-59
2022/02/17 05:54:42;;;;;;;63.30;36.40;;;;;;;2.57;91.22;98062.05;109281;1274;137805;-59
2022/02/17 05:57:13;;;;;;;64.00;37.50;;;;;;;2.58;91.32;98055.72;109382;1274;22463;-59
2022/02/17 05:59:45;;;;;;;66.10;37.70;;;;;;;2.59;91.31;98056.17;109240;1274;139826;-59
2022/02/17 06:02:15;;;;;;;66.50;36.60;;;;;;;2.60;91.18;98056.70;109386;1274;22449;-59
2022/02/17 06:04:44;;;;;;;62.80;38.20;;;;;;;2.60;91.10;98053.33;109258;1274;138853;-58
2022/02/17 06:07:13;;;;;;;73.40;39.00;;;;;;;2.61;91.19;98054.36;109420;1273;22428;-59
2022/02/17 06:09:43;;;;;;;69.30;40.30;;;;;;;2.62;91.04;98048.19;109429;1274;22445;-59
2022/02/17 06:12:11;;;;;;;69.90;38.20;;;;;;;2.63;91.10;98048.09;109324;1274;139264;-59
2022/02/17 06:14:39;;;;;;;62.60;37.30;;;;;;;2.65;91.13;98055.29;109456;1273;22416;-59
2022/02/17 06:17:10;;;;;;;69.30;39.40;;;;;;;2.65;91.00;98051.30;109313;1274;139236;-59
2022/02/17 06:19:38;;;;;;;67.70;38.90;;;;;;;2.66;91.18;98039.41;109437;1274;22521;-59
2022/02/17 06:22:06;;;;;;;70.80;38.10;;;;;;;2.66;91.06;98038.54;109463;1273;22431;-59
2022/02/17 06:24:34;;;;;;;65.90;36.60;;;;;;;2.67;91.12;98030.00;109313;1273;138627;-59
2022/02/17 06:27:04;;;;;;;64.80;37.20;;;;;;;2.69;91.11;98027.47;109425;1273;22494;-59
2022/02/17 06:29:32;;;;;;;67.30;38.10;;;;;;;2.73;91.15;98023.45;109387;1274;138170;-59
2022/02/17 06:32:00;;;;;;;72.40;37.30;;;;;;;2.77;91.11;98022.95;109428;1273;22524;-59
2022/02/17 06:34:28;;;;;;;64.10;35.40;;;;;;;2.81;91.11;98014.14;109232;1275;138762;-59
2022/02/17 06:36:58;;;;;;;66.40;37.30;;;;;;;2.82;91.02;98010.95;109427;1274;22456;-59
2022/02/17 06:39:26;;;;;;;67.80;38.80;;;;;;;2.85;90.79;98004.48;108840;1274;22633;-59
2022/02/17 06:41:54;;;;;;;62.50;36.50;;;;;;;2.86;90.88;97998.21;104761;1274;138427;-59
2022/02/17 06:44:22;;;;;;;75.70;38.90;;;;;;;2.87;90.81;97995.27;109391;1274;23576;-59
2022/02/17 06:46:51;;;;;;;68.50;40.70;;;;;;;2.88;90.79;97995.48;109286;1273;139741;-59
2022/02/17 06:49:21;;;;;;;63.40;36.10;;;;;;;2.89;90.79;97998.29;109435;1274;22502;-59
2022/02/17 06:51:48;;;;;;;68.50;37.20;;;;;;;2.92;90.78;97994.52;109464;1274;23429;-59
2022/02/17 06:54:16;;;;;;;72.10;38.90;;;;;;;2.95;90.71;97983.11;109309;1274;140092;-59
2022/02/17 06:56:45;;;;;;;68.00;37.80;;;;;;;2.96;90.47;97985.66;109445;1274;22534;-59
2022/02/17 06:59:13;;;;;;;98.30;51.50;;;;;;;2.99;90.57;97981.35;109354;1274;138038;-59
2022/02/17 07:01:42;;;;;;;138.10;59.50;;;;;;;3.00;90.35;97974.05;109417;1274;22450;-59
2022/02/17 07:04:11;;;;;;;78.00;43.70;;;;;;;3.02;90.59;97965.25;109440;1274;22515;-59
2022/02/17 07:06:42;;;;;;;100.20;51.30;;;;;;;3.05;90.25;97956.18;109325;1274;138092;-59
2022/02/17 07:09:10;;;;;;;86.20;47.50;;;;;;;3.07;90.29;97954.27;109439;1273;23116;-59
2022/02/17 07:11:39;;;;;;;75.70;44.80;;;;;;;3.07;89.93;97951.91;109286;1274;139869;-59
2022/02/17 07:14:11;;;;;;;67.60;39.40;;;;;;;3.10;90.07;97944.14;109464;1273;22405;-59
2022/02/17 07:16:38;;;;;;;64.00;39.40;;;;;;;3.14;89.96;97931.79;109317;1273;139975;-60
2022/02/17 07:19:12;;;;;;;57.80;36.20;;;;;;;3.18;89.80;97921.02;109451;1274;23112;-59
2022/02/17 07:21:41;;;;;;;65.40;35.10;;;;;;;3.22;89.76;97909.73;109423;1273;22478;-59
2022/02/17 07:24:10;;;;;;;68.10;36.30;;;;;;;3.23;89.45;97904.49;109325;1274;139277;-59
2022/02/17 07:26:38;;;;;;;62.80;34.50;;;;;;;3.25;89.40;97902.80;109433;1274;22510;-59
2022/02/17 07:29:05;;;;;;;66.70;35.60;;;;;;;3.27;89.44;97888.98;109299;1274;139191;-59
2022/02/17 07:31:35;;;;;;;63.90;36.60;;;;;;;3.30;89.29;97876.33;109405;1274;22449;-59
2022/02/17 07:34:03;;;;;;;59.60;34.60;;;;;;;3.34;89.17;97873.13;109462;1273;22440;-59
2022/02/17 07:36:32;;;;;;;68.20;39.20;;;;;;;3.36;89.25;97862.82;109327;1274;137992;-59
2022/02/17 07:39:11;;;;;;;62.30;34.40;;;;;;;3.40;88.89;97854.56;109435;1273;23195;-59
2022/02/17 07:41:39;;;;;;;61.10;35.80;;;;;;;3.44;88.89;97846.29;109320;1274;138525;-59
2022/02/17 07:44:08;;;;;;;66.30;38.40;;;;;;;3.49;88.81;97839.74;109402;1274;22540;-59
2022/02/17 07:46:38;;;;;;;66.20;37.80;;;;;;;3.54;88.68;97827.86;109290;1274;138215;-59
2022/02/17 07:49:08;;;;;;;66.30;37.40;;;;;;;3.61;88.42;97830.03;109444;1273;22525;-59
2022/02/17 07:51:36;;;;;;;63.60;36.90;;;;;;;3.67;88.41;97828.14;109438;1274;22439;-59
2022/02/17 07:54:04;;;;;;;61.50;36.50;;;;;;;3.73;88.24;97825.51;109314;1274;139638;-59
2022/02/17 07:56:33;;;;;;;64.30;36.80;;;;;;;3.81;87.98;97821.59;109448;1274;22438;-59
2022/02/17 07:59:01;;;;;;;63.50;35.40;;;;;;;3.85;88.10;97823.73;109317;1273;139409;-59
2022/02/17 08:01:29;;;;;;;60.70;35.20;;;;;;;3.95;87.39;97831.89;109310;1274;22514;-59
2022/02/17 08:03:57;;;;;;;57.50;34.90;;;;;;;3.98;87.24;97836.45;109478;1274;22430;-59
2022/02/17 08:06:25;;;;;;;60.80;34.80;;;;;;;4.04;86.80;97850.14;109341;1273;139340;-59
2022/02/17 08:08:56;;;;;;;59.80;34.40;;;;;;;4.09;86.85;97853.19;109435;1273;22463;-59
2022/02/17 08:11:24;;;;;;;63.10;35.10;;;;;;;4.13;86.40;97849.45;109364;1273;139632;-59
2022/02/17 08:13:53;;;;;;;59.90;33.10;;;;;;;4.17;86.44;97844.05;109415;1273;22452;-59
2022/02/17 08:16:25;;;;;;;62.20;36.00;;;;;;;4.20;86.21;97846.59;109433;1274;23054;-59
2022/02/17 08:18:56;;;;;;;67.00;39.50;;;;;;;4.23;85.93;97841.54;109351;1273;137848;-59
2022/02/17 08:21:42;;;;;;;58.10;35.20;;;;;;;4.23;85.54;97828.17;109409;1273;23329;-59
2022/02/17 08:24:12;;;;;;;67.80;37.60;;;;;;;4.24;85.61;97810.19;109306;1274;137757;-59
2022/02/17 08:26:56;;;;;;;64.10;35.00;;;;;;;4.24;85.18;97792.92;109447;1274;22499;-59
2022/02/17 08:29:24;;;;;;;59.00;33.50;;;;;;;4.24;85.09;97773.25;109348;1274;139437;-59
2022/02/17 08:31:52;;;;;;;57.40;34.00;;;;;;;4.22;84.79;97762.94;109424;1273;22562;-59
2022/02/17 08:34:20;;;;;;;57.40;33.00;;;;;;;4.22;85.13;97755.17;109429;1274;22451;-59
2022/02/17 08:36:52;;;;;;;57.20;34.50;;;;;;;4.24;85.15;97744.90;109348;1274;140242;-59
2022/02/17 08:39:20;;;;;;;58.50;33.00;;;;;;;4.29;85.00;97745.09;109450;1274;23247;-61
2022/02/17 08:41:48;;;;;;;54.10;30.50;;;;;;;4.35;84.97;97747.70;109359;1274;139906;-61
2022/02/17 08:44:16;;;;;;;56.70;32.60;;;;;;;4.42;85.15;97742.03;109438;1274;22440;-61
2022/02/17 08:46:46;;;;;;;56.60;31.90;;;;;;;4.52;84.79;97742.95;109346;1273;138737;-60
2022/02/17 08:49:14;;;;;;;52.50;31.90;;;;;;;4.64;84.71;97740.52;109449;1274;23091;-61
2022/02/17 08:51:42;;;;;;;54.70;32.50;;;;;;;4.72;84.40;97737.80;109465;1273;22473;-61
2022/02/17 08:54:10;;;;;;;58.80;34.30;;;;;;;4.83;84.03;97741.40;109327;1274;138255;-61
2022/02/17 08:56:39;;;;;;;59.70;34.40;;;;;;;4.92;83.86;97743.59;109342;1274;23574;-61
2022/02/17 08:59:07;;;;;;;59.80;34.20;;;;;;;5.02;83.86;97745.36;109347;1273;137580;-61
2022/02/17 09:01:35;;;;;;;57.40;33.70;;;;;;;5.10;83.24;97738.89;109412;1274;22488;-61
2022/02/17 09:04:04;;;;;;;58.20;34.60;;;;;;;5.15;82.83;97725.04;109501;1273;22395;-61
2022/02/17 09:06:32;;;;;;;56.20;33.20;;;;;;;5.19;82.38;97712.67;109363;1272;139277;-61
2022/02/17 09:09:00;;;;;;;62.70;34.80;;;;;;;5.19;82.41;97705.31;109449;1273;22479;-61
2022/02/17 09:11:31;;;;;;;53.20;31.00;;;;;;;5.23;81.65;97699.76;109369;1273;138683;-61
2022/02/17 09:13:59;;;;;;;52.10;31.40;;;;;;;5.24;81.72;97692.80;109431;1274;23271;-61
2022/02/17 09:16:27;;;;;;;51.70;30.20;;;;;;;5.27;81.53;97682.77;109440;1273;22460;-61
2022/02/17 09:18:56;;;;;;;50.90;28.80;;;;;;;5.31;81.30;97678.30;109323;1274;138859;-61
2022/02/17 09:21:23;;;;;;;51.60;31.50;;;;;;;5.34;81.02;97668.94;109455;1274;23424;-61
2022/02/17 09:24:04;;;;;;;45.40;29.00;;;;;;;5.38;80.86;97664.30;109318;1273;139174;-61
2022/02/17 09:26:36;;;;;;;56.10;32.80;;;;;;;5.40;80.75;97654.59;109476;1273;22467;-61
2022/02/17 09:29:04;;;;;;;50.00;32.00;;;;;;;5.42;80.74;97642.98;109345;1274;137681;-61
2022/02/17 09:31:53;;;;;;;56.80;33.60;;;;;;;5.43;80.42;97639.67;109446;1274;23325;-61
2022/02/17 09:34:21;;;;;;;51.90;30.60;;;;;;;5.46;80.11;97627.69;109445;1274;22312;-61
2022/02/17 09:36:49;;;;;;;51.60;29.30;;;;;;;5.50;80.26;97618.86;109342;1274;138408;-61
2022/02/17 09:39:18;;;;;;;49.90;31.50;;;;;;;5.53;80.09;97616.76;109449;1274;22558;-61
2022/02/17 09:41:46;;;;;;;48.90;31.40;;;;;;;5.56;79.75;97609.14;109360;1273;138205;-61
2022/02/17 09:44:15;;;;;;;46.60;29.10;;;;;;;5.59;79.45;97606.55;109432;1273;22636;-61
2022/02/17 09:46:45;;;;;;;49.50;29.30;;;;;;;5.63;79.10;97604.05;109338;1273;140751;-60
2022/02/17 09:49:14;;;;;;;55.60;31.80;;;;;;;5.65;79.28;97591.23;109453;1274;22412;-61
2022/02/17 09:51:45;;;;;;;56.00;33.60;;;;;;;5.66;78.70;97582.96;109435;1274;22491;-61
2022/02/17 09:54:13;;;;;;;51.50;31.40;;;;;;;5.68;79.18;97571.62;109224;1274;138896;-61
2022/02/17 09:56:42;;;;;;;52.40;30.10;;;;;;;5.72;79.14;97560.54;109391;1273;22390;-61
2022/02/17 09:59:15;;;;;;;51.30;31.20;;;;;;;5.75;78.99;97551.73;109326;1273;137765;-61
2022/02/17 10:02:02;;;;;;;52.20;28.20;;;;;;;5.79;78.63;97542.61;109339;1274;22480;-61
2022/02/17 10:04:32;;;;;;;44.10;27.40;;;;;;;5.83;78.47;97536.33;109449;1274;22457;-61
2022/02/17 10:07:02;;;;;;;44.40;26.70;;;;;;;5.87;78.67;97531.80;109356;1273;138895;-61
2022/02/17 10:09:37;;;;;;;42.30;26.50;;;;;;;5.91;78.37;97525.86;109439;1273;22462;-61
2022/02/17 10:12:07;;;;;;;47.00;25.80;;;;;;;5.96;78.48;97527.13;109353;1274;139022;-61
2022/02/17 10:14:35;;;;;;;45.00;27.30;;;;;;;6.00;78.62;97525.65;109298;1274;22565;-61
2022/02/17 10:17:10;;;;;;;50.60;29.30;;;;;;;6.04;78.45;97516.83;109322;1273;138028;-61
2022/02/17 10:19:41;;;;;;;45.10;27.40;;;;;;;6.10;77.93;97513.33;109463;1274;22448;-61
2022/02/17 10:22:11;;;;;;;49.90;29.40;;;;;;;6.14;78.32;97513.64;109451;1272;22299;-61
2022/02/17 10:24:42;;;;;;;44.50;27.80;;;;;;;6.18;77.91;97507.36;109312;1274;137482;-61
2022/02/17 10:27:12;;;;;;;41.10;26.40;;;;;;;6.21;77.73;97498.52;109445;1274;23620;-61
2022/02/17 10:30:09;;;;;;;44.30;25.20;;;;;;;6.26;77.71;97488.85;109341;1273;139395;-61
2022/02/17 10:32:52;;;;;;;37.80;25.10;;;;;;;6.33;77.70;97482.55;109431;1273;22472;-61
2022/02/17 10:35:21;;;;;;;45.80;23.80;;;;;;;6.40;77.93;97477.24;109315;1273;138989;-61
2022/02/17 10:37:51;;;;;;;37.10;23.70;;;;;;;6.50;77.55;97473.17;109469;1273;22488;-61
2022/02/17 10:40:32;;;;;;;35.40;22.90;;;;;;;6.59;77.12;97462.83;109432;1274;22454;-61
2022/02/17 10:43:07;;;;;;;38.90;21.10;;;;;;;6.67;76.45;97455.50;109326;1274;137799;-61
2022/02/17 10:45:44;;;;;;;33.10;22.10;;;;;;;6.72;75.89;97452.27;109445;1272;22495;-61
2022/02/17 10:48:18;;;;;;;32.70;21.80;;;;;;;6.76;75.63;97450.24;109297;1274;139629;-61
2022/02/17 10:51:14;;;;;;;31.50;21.40;;;;;;;6.78;74.84;97448.88;109442;1274;22643;-61
2022/02/17 10:53:46;;;;;;;29.40;19.80;;;;;;;6.78;74.60;97445.50;109231;1274;139922;-62
2022/02/17 10:56:21;;;;;;;33.60;20.70;;;;;;;6.79;74.26;97441.92;109460;1274;23307;-61
2022/02/17 10:58:50;;;;;;;32.30;19.70;;;;;;;6.79;74.56;97432.55;109309;1274;138692;-61
2022/02/17 11:01:21;;;;;;;29.50;19.40;;;;;;;6.79;74.27;97434.56;109443;1274;22511;-61
2022/02/17 11:03:49;;;;;;;33.30;19.90;;;;;;;6.80;74.51;97426.97;109436;1274;22243;-61
2022/02/17 11:06:17;;;;;;;29.00;19.80;;;;;;;6.79;74.62;97426.54;109308;1274;138993;-61
2022/02/17 11:08:51;;;;;;;28.20;19.10;;;;;;;6.77;74.48;97416.94;109251;1274;22491;-61
2022/02/17 11:11:21;;;;;;;28.60;19.20;;;;;;;6.75;74.42;97415.50;109184;1275;138817;-61
2022/02/17 11:13:51;;;;;;;31.30;19.80;;;;;;;6.72;74.14;97413.73;109303;1276;23256;-61
2022/02/17 11:16:39;;;;;;;27.60;18.30;;;;;;;6.68;73.93;97410.41;109319;1274;22535;-61
2022/02/17 11:19:09;;;;;;;25.20;17.10;;;;;;;6.65;73.88;97407.52;109104;1277;138304;-61
2022/02/17 11:21:37;;;;;;;24.10;16.70;;;;;;;6.60;73.95;97400.59;109124;1276;22467;-61
2022/02/17 11:24:05;;;;;;;21.80;15.60;;;;;;;6.55;74.41;97390.56;109022;1276;138281;-61
2022/02/17 11:26:35;;;;;;;22.60;14.90;;;;;;;6.51;74.77;97382.42;109314;1276;22405;-61
2022/02/17 11:29:23;;;;;;;27.40;15.10;;;;;;;6.46;75.05;97374.59;109212;1275;138731;-62
2022/02/17 11:32:05;;;;;;;23.80;15.80;;;;;;;6.44;75.37;97367.67;109326;1275;22430;-61
2022/02/17 11:34:46;;;;;;;23.90;15.90;;;;;;;6.41;75.70;97359.09;109337;1275;22441;-61
2022/02/17 11:37:22;;;;;;;26.90;16.40;;;;;;;6.39;75.74;97356.45;109222;1275;138236;-61
2022/02/17 11:40:01;;;;;;;23.70;16.00;;;;;;;6.38;75.72;97350.89;107885;1276;24009;-57
2022/02/17 11:42:33;;;;;;;23.40;16.40;;;;;;;6.38;75.92;97347.05;104833;1277;139290;-57
2022/02/17 11:45:15;;;;;;;28.20;16.60;;;;;;;6.38;75.79;97345.96;104869;1277;24268;-57
2022/02/17 11:48:03;;;;;;;24.70;16.30;;;;;;;6.37;75.87;97340.30;104722;1277;138068;-57
2022/02/17 11:50:35;;;;;;;27.00;16.00;;;;;;;6.37;75.68;97328.73;104920;1277;25425;-58
2022/02/17 11:53:22;;;;;;;26.60;15.60;;;;;;;6.36;75.96;97326.30;104702;1277;138488;-58
2022/02/17 11:56:15;;;;;;;25.30;15.80;;;;;;;6.33;76.05;97325.20;104856;1276;23980;-58
2022/02/17 11:58:44;;;;;;;19.80;13.70;;;;;;;6.31;76.00;97319.16;104970;1277;22564;-58
2022/02/17 12:01:33;;;;;;;21.40;14.50;;;;;;;6.31;76.01;97317.98;109232;1274;139503;-59
2022/02/17 12:04:09;;;;;;;23.20;15.20;;;;;;;6.29;76.36;97308.15;109310;1274;22287;-59
2022/02/17 12:07:04;;;;;;;23.70;14.90;;;;;;;6.26;76.45;97300.33;109209;1276;137939;-59
2022/02/17 12:09:47;;;;;;;22.30;14.80;;;;;;;6.21;76.66;97293.06;109424;1274;23249;-59
2022/02/17 12:12:30;;;;;;;21.60;14.80;;;;;;;6.20;76.80;97297.41;109292;1273;137914;-59
2022/02/17 12:15:00;;;;;;;20.50;12.90;;;;;;;6.18;76.77;97291.70;109370;1274;22472;-59
2022/02/17 12:17:33;;;;;;;22.20;14.30;;;;;;;6.16;76.93;97281.55;109283;1274;138656;-59
2022/02/17 12:20:12;;;;;;;19.60;12.90;;;;;;;6.14;77.22;97277.45;109405;1274;22442;-60
2022/02/17 12:25:11;;;;;;;17.10;11.60;;;;;;;6.11;77.34;97269.96;101566;1310;545199;-59
2022/02/17 12:27:40;;;;;;;21.30;11.70;;;;;;;6.08;77.24;97263.88;103803;1289;25346;-59
2022/02/17 12:30:09;;;;;;;18.00;12.00;;;;;;;6.08;77.47;97260.41;103664;1289;138643;-59
2022/02/17 12:32:37;;;;;;;20.20;12.50;;;;;;;6.06;77.79;97250.08;108110;1286;22436;-60
2022/02/17 12:35:06;;;;;;;21.10;12.60;;;;;;;6.03;77.74;97246.52;108069;1287;137951;-59
2022/02/17 12:37:34;;;;;;;18.70;11.90;;;;;;;6.00;77.93;97241.46;108041;1286;144795;-59
2022/02/17 12:40:02;;;;;;;20.10;13.10;;;;;;;5.96;78.37;97234.57;108183;1286;22498;-59
2022/02/17 12:42:40;;;;;;;18.20;12.80;;;;;;;5.93;78.53;97221.77;108186;1284;137584;-59
2022/02/17 12:45:08;;;;;;;18.60;11.60;;;;;;;5.90;78.81;97209.83;108280;1286;23096;-59
2022/02/17 12:47:37;;;;;;;23.10;12.80;;;;;;;5.85;78.95;97194.50;108172;1286;138413;-59